Check out our new BloomSky Weather System.

Active alerts


No alerts


Thunder radar  blitzortung!


Rain radar more information rain snow radar


Visit our other weather sites:

Template documentation
and downloads

And another site



Weather Underground History page Text

Daily Summary for February 13, 2017 Units:  English    Metric   Both
« Previous Day
Next Day »
Daily Weekly Monthly Yearly Custom
  High: Low: Average:
Temperature: 77.5 °F 64.6 °F 69.8 °F
Dew Point: 68.0 °F 60.3 °F 64.5 °F
Humidity: 97 % 62 % 84 %
Wind Speed: 14.0 mph 0.0 mph 2.7 mph
Wind Gust: 16.0 mph - -
Wind:- - SE
Pressure: 30.17 in 29.93 in -
Precipitation: 0.00 in    
Historical Graphs
 
 
Tabular Data for February 13, 2017
Time Temperature Dew Point Pressure Wind Wind Speed Wind Gust Humidity Rainfall Rate (Hourly)
00:01 70.2 °F 67.5 °F 30.13 in SSE 1.0 mph 1.0 mph 91 % 0.00 in
00:06 70.2 °F 67.6 °F 30.13 in South 2.0 mph 2.0 mph 92 % 0.00 in
00:11 70.2 °F 67.5 °F 30.13 in Calm   2.0 mph 91 % 0.00 in
00:16 70.2 °F 67.5 °F 30.13 in SSE 2.0 mph 3.0 mph 91 % 0.00 in
00:21 70.2 °F 67.5 °F 30.13 in Calm   3.0 mph 91 % 0.00 in
00:26 70.2 °F 67.5 °F 30.13 in Calm   3.0 mph 91 % 0.00 in
00:31 70.2 °F 67.5 °F 30.13 in Calm   2.0 mph 91 % 0.00 in
00:36 70.0 °F 67.3 °F 30.13 in Calm   1.0 mph 91 % 0.00 in
00:41 70.0 °F 67.5 °F 30.12 in Calm     92 % 0.00 in
00:46 69.8 °F 67.3 °F 30.12 in Calm   1.0 mph 92 % 0.00 in
00:51 69.8 °F 67.3 °F 30.12 in Calm   1.0 mph 92 % 0.00 in
00:56 69.6 °F 67.3 °F 30.12 in Calm   1.0 mph 92 % 0.00 in
01:01 69.6 °F 67.3 °F 30.12 in Calm   1.0 mph 92 % 0.00 in
01:06 69.6 °F 67.3 °F 30.12 in Calm   1.0 mph 92 % 0.00 in
01:11 69.8 °F 67.6 °F 30.12 in Calm   2.0 mph 93 % 0.00 in
01:16 69.8 °F 67.6 °F 30.12 in SE 1.0 mph 2.0 mph 93 % 0.00 in
01:21 70.0 °F 67.8 °F 30.12 in Calm   2.0 mph 93 % 0.00 in
01:26 69.8 °F 67.6 °F 30.11 in Calm   1.0 mph 93 % 0.00 in
01:31 69.8 °F 67.6 °F 30.11 in Calm   1.0 mph 93 % 0.00 in
01:36 69.6 °F 67.5 °F 30.11 in Calm     93 % 0.00 in
01:41 69.6 °F 67.5 °F 30.11 in Calm   1.0 mph 93 % 0.00 in
01:46 69.6 °F 67.5 °F 30.11 in Calm   1.0 mph 93 % 0.00 in
01:51 69.4 °F 67.3 °F 30.11 in Calm   1.0 mph 93 % 0.00 in
01:56 69.4 °F 67.3 °F 30.11 in Calm   1.0 mph 93 % 0.00 in
02:01 69.3 °F 67.1 °F 30.11 in Calm   1.0 mph 93 % 0.00 in
02:06 68.9 °F 66.7 °F 30.11 in Calm   1.0 mph 93 % 0.00 in
02:11 69.1 °F 67.3 °F 30.11 in Calm     94 % 0.00 in
02:16 69.1 °F 67.3 °F 30.11 in Calm   1.0 mph 94 % 0.00 in
02:21 69.3 °F 67.5 °F 30.10 in Calm   1.0 mph 94 % 0.00 in
02:26 69.3 °F 67.5 °F 30.10 in ESE 1.0 mph 2.0 mph 94 % 0.00 in
02:31 69.3 °F 67.8 °F 30.10 in Calm   2.0 mph 95 % 0.00 in
02:36 69.3 °F 67.8 °F 30.10 in SSE 2.0 mph 2.0 mph 95 % 0.00 in
02:41 69.4 °F 68.0 °F 30.10 in SE 2.0 mph 3.0 mph 95 % 0.00 in
02:46 69.4 °F 68.0 °F 30.10 in ESE 1.0 mph 3.0 mph 95 % 0.00 in
02:51 69.4 °F 68.0 °F 30.10 in SE 1.0 mph 3.0 mph 95 % 0.00 in
02:57 69.4 °F 68.0 °F 30.10 in SSE 1.0 mph 3.0 mph 95 % 0.00 in
03:02 69.4 °F 68.0 °F 30.10 in ESE 1.0 mph 3.0 mph 95 % 0.00 in
03:07 69.4 °F 68.0 °F 30.10 in ESE 1.0 mph 3.0 mph 95 % 0.00 in
03:12 69.4 °F 68.0 °F 30.10 in Calm   2.0 mph 95 % 0.00 in
03:17 69.4 °F 68.0 °F 30.10 in Calm   2.0 mph 95 % 0.00 in
03:22 69.3 °F 67.8 °F 30.10 in Calm   2.0 mph 95 % 0.00 in
03:27 69.3 °F 67.8 °F 30.10 in ESE 1.0 mph 1.0 mph 95 % 0.00 in
03:32 69.3 °F 67.8 °F 30.10 in Calm   2.0 mph 95 % 0.00 in
03:37 69.3 °F 67.8 °F 30.10 in Calm   2.0 mph 95 % 0.00 in
03:42 69.1 °F 67.6 °F 30.10 in Calm   2.0 mph 95 % 0.00 in
03:47 69.1 °F 67.6 °F 30.10 in Calm   1.0 mph 95 % 0.00 in
03:52 68.7 °F 67.3 °F 30.10 in Calm   1.0 mph 95 % 0.00 in
03:57 68.7 °F 67.3 °F 30.10 in Calm   1.0 mph 95 % 0.00 in
04:02 68.7 °F 67.3 °F 30.10 in Calm   1.0 mph 95 % 0.00 in
04:07 68.5 °F 67.1 °F 30.10 in Calm   1.0 mph 95 % 0.00 in
04:12 68.5 °F 67.1 °F 30.09 in Calm   2.0 mph 95 % 0.00 in
04:17 68.5 °F 67.1 °F 30.09 in Calm   2.0 mph 95 % 0.00 in
04:22 68.5 °F 67.1 °F 30.10 in SSE 1.0 mph 2.0 mph 95 % 0.00 in
04:27 68.5 °F 67.1 °F 30.10 in Calm   2.0 mph 95 % 0.00 in
04:32 68.4 °F 66.9 °F 30.10 in Calm   2.0 mph 95 % 0.00 in
04:37 68.4 °F 66.9 °F 30.10 in Calm   2.0 mph 95 % 0.00 in
04:42 68.2 °F 66.4 °F 30.10 in Calm   1.0 mph 94 % 0.00 in
04:47 67.8 °F 66.0 °F 30.10 in Calm   1.0 mph 94 % 0.00 in
04:52 67.6 °F 65.8 °F 30.10 in Calm     94 % 0.00 in
04:57 67.5 °F 65.7 °F 30.10 in Calm     94 % 0.00 in
05:02 66.9 °F 65.1 °F 30.10 in Calm     94 % 0.00 in
05:07 66.6 °F 64.8 °F 30.10 in Calm     94 % 0.00 in
05:12 66.2 °F 64.4 °F 30.10 in Calm     94 % 0.00 in
05:17 65.8 °F 64.0 °F 30.10 in Calm     94 % 0.00 in
05:22 65.8 °F 64.4 °F 30.10 in Calm     95 % 0.00 in
05:27 65.8 °F 64.4 °F 30.10 in Calm     95 % 0.00 in
05:32 65.8 °F 64.4 °F 30.10 in Calm     95 % 0.00 in
05:37 65.8 °F 64.4 °F 30.10 in Calm     95 % 0.00 in
05:42 65.8 °F 64.6 °F 30.10 in Calm     96 % 0.00 in
05:47 65.8 °F 64.6 °F 30.10 in Calm     96 % 0.00 in
05:52 65.7 °F 64.2 °F 30.11 in Calm     95 % 0.00 in
05:57 65.5 °F 64.2 °F 30.11 in Calm     96 % 0.00 in
06:02 65.7 °F 64.4 °F 30.11 in Calm     96 % 0.00 in
06:07 65.8 °F 64.6 °F 30.11 in Calm     96 % 0.00 in
06:12 66.0 °F 64.8 °F 30.11 in Calm   1.0 mph 96 % 0.00 in
06:17 66.2 °F 65.3 °F 30.12 in NW 1.0 mph 1.0 mph 97 % 0.00 in
06:22 66.6 °F 65.7 °F 30.12 in Calm   2.0 mph 97 % 0.00 in
06:27 66.6 °F 65.7 °F 30.11 in Calm   2.0 mph 97 % 0.00 in
06:32 66.7 °F 65.8 °F 30.11 in Calm   2.0 mph 97 % 0.00 in
06:37 66.9 °F 66.0 °F 30.12 in Calm   2.0 mph 97 % 0.00 in
06:42 67.3 °F 66.4 °F 30.11 in Calm   2.0 mph 97 % 0.00 in
06:47 67.3 °F 66.4 °F 30.12 in Calm   2.0 mph 97 % 0.00 in
06:52 67.3 °F 66.4 °F 30.12 in Calm   2.0 mph 97 % 0.00 in
06:57 67.5 °F 66.6 °F 30.12 in Calm   2.0 mph 97 % 0.00 in
07:02 67.5 °F 66.6 °F 30.12 in NE 1.0 mph 2.0 mph 97 % 0.00 in
07:07 67.5 °F 66.6 °F 30.13 in Calm   1.0 mph 97 % 0.00 in
07:13 67.5 °F 66.6 °F 30.13 in Calm   1.0 mph 97 % 0.00 in
07:18 67.5 °F 66.6 °F 30.13 in Calm   1.0 mph 97 % 0.00 in
07:23 67.6 °F 66.7 °F 30.13 in Calm   1.0 mph 97 % 0.00 in
07:28 67.6 °F 66.7 °F 30.13 in Calm   1.0 mph 97 % 0.00 in
07:33 67.6 °F 66.7 °F 30.13 in Calm   1.0 mph 97 % 0.00 in
07:38 67.6 °F 66.7 °F 30.14 in Calm   1.0 mph 97 % 0.00 in
07:43 67.8 °F 66.9 °F 30.14 in Calm   1.0 mph 97 % 0.00 in
07:48 67.8 °F 66.9 °F 30.14 in NNW 1.0 mph 2.0 mph 97 % 0.00 in
07:53 68.0 °F 67.1 °F 30.14 in Calm   2.0 mph 97 % 0.00 in
07:58 68.2 °F 67.3 °F 30.14 in NE 2.0 mph 4.0 mph 97 % 0.00 in
08:03 68.2 °F 67.3 °F 30.14 in NE 1.0 mph 4.0 mph 97 % 0.00 in
08:08 68.4 °F 67.5 °F 30.14 in Calm   4.0 mph 97 % 0.00 in
08:13 68.4 °F 67.5 °F 30.14 in NNW 1.0 mph 3.0 mph 97 % 0.00 in
08:18 68.4 °F 67.5 °F 30.15 in Calm   4.0 mph 97 % 0.00 in
08:23 67.8 °F 66.6 °F 30.15 in NNE 1.0 mph 4.0 mph 96 % 0.00 in
08:28 66.9 °F 65.7 °F 30.15 in North 1.0 mph 8.0 mph 96 % 0.00 in
08:33 66.6 °F 65.3 °F 30.15 in NW 1.0 mph 8.0 mph 96 % 0.00 in
08:38 66.4 °F 65.1 °F 30.16 in Calm   8.0 mph 96 % 0.00 in
08:43 66.0 °F 64.8 °F 30.16 in ENE 3.0 mph 6.0 mph 96 % 0.00 in
08:48 65.8 °F 64.6 °F 30.16 in North 2.0 mph 7.0 mph 96 % 0.00 in
08:53 65.7 °F 64.4 °F 30.16 in North 3.0 mph 7.0 mph 96 % 0.00 in
08:58 65.7 °F 64.4 °F 30.16 in Calm   8.0 mph 96 % 0.00 in
09:03 65.5 °F 64.2 °F 30.16 in Calm   8.0 mph 96 % 0.00 in
09:08 65.5 °F 64.2 °F 30.16 in NW 2.0 mph 8.0 mph 96 % 0.00 in
09:13 65.3 °F 64.0 °F 30.17 in ENE 1.0 mph 6.0 mph 96 % 0.00 in
09:18 65.3 °F 64.0 °F 30.17 in NE 2.0 mph 6.0 mph 96 % 0.00 in
09:23 65.1 °F 64.0 °F 30.17 in ESE 2.0 mph 7.0 mph 96 % 0.00 in
09:28 64.9 °F 63.5 °F 30.17 in ENE 3.0 mph 7.0 mph 95 % 0.00 in
09:33 64.8 °F 63.3 °F 30.17 in Calm   7.0 mph 95 % 0.00 in
09:38 64.6 °F 63.1 °F 30.17 in NNE 1.0 mph 7.0 mph 95 % 0.00 in
09:44 64.6 °F 63.1 °F 30.17 in Calm   6.0 mph 95 % 0.00 in
09:49 64.8 °F 63.3 °F 30.17 in NNW 1.0 mph 6.0 mph 95 % 0.00 in
09:54 64.8 °F 63.3 °F 30.17 in NNE 1.0 mph 6.0 mph 95 % 0.00 in
09:59 64.6 °F 62.8 °F 30.17 in North 3.0 mph 6.0 mph 94 % 0.00 in
10:04 64.8 °F 63.0 °F 30.17 in NNE 1.0 mph 6.0 mph 94 % 0.00 in
10:09 64.8 °F 62.6 °F 30.17 in Calm   6.0 mph 93 % 0.00 in
10:14 65.1 °F 63.0 °F 30.17 in NNE 3.0 mph 5.0 mph 93 % 0.00 in
10:19 65.5 °F 62.2 °F 30.17 in NE 2.0 mph 5.0 mph 89 % 0.00 in
10:24 65.7 °F 61.7 °F 30.17 in ENE 2.0 mph 5.0 mph 87 % 0.00 in
10:29 66.0 °F 61.3 °F 30.17 in ENE 5.0 mph 6.0 mph 85 % 0.00 in
10:34 66.7 °F 61.3 °F 30.17 in NNW 6.0 mph 9.0 mph 83 % 0.00 in
10:39 67.5 °F 60.8 °F 30.17 in NNW 5.0 mph 9.0 mph 79 % 0.00 in
10:44 68.0 °F 60.8 °F 30.17 in NE 2.0 mph 10.0 mph 78 % 0.00 in
10:49 68.0 °F 60.4 °F 30.16 in North 3.0 mph 10.0 mph 77 % 0.00 in
10:54 67.8 °F 60.3 °F 30.16 in NNE 2.0 mph 10.0 mph 77 % 0.00 in
10:59 68.0 °F 60.4 °F 30.16 in Calm   10.0 mph 77 % 0.00 in
11:04 68.7 °F 61.2 °F 30.16 in East 4.0 mph 10.0 mph 77 % 0.00 in
11:09 69.6 °F 61.3 °F 30.16 in ENE 2.0 mph 9.0 mph 75 % 0.00 in
11:14 70.2 °F 60.6 °F 30.15 in ESE 1.0 mph 10.0 mph 72 % 0.00 in
11:19 70.0 °F 61.0 °F 30.15 in ESE 3.0 mph 10.0 mph 73 % 0.00 in
11:24 70.5 °F 61.0 °F 30.15 in NW 1.0 mph 10.0 mph 72 % 0.00 in
11:29 70.9 °F 61.0 °F 30.15 in NW 5.0 mph 9.0 mph 71 % 0.00 in
11:34 71.2 °F 61.3 °F 30.15 in ENE 4.0 mph 9.0 mph 71 % 0.00 in
11:39 71.2 °F 61.3 °F 30.14 in ENE 4.0 mph 9.0 mph 71 % 0.00 in
11:44 71.4 °F 61.2 °F 30.14 in ENE 5.0 mph 9.0 mph 70 % 0.00 in
11:49 71.8 °F 61.5 °F 30.14 in WNW 1.0 mph 9.0 mph 70 % 0.00 in
11:54 72.1 °F 61.0 °F 30.13 in NE 3.0 mph 9.0 mph 68 % 0.00 in
11:59 71.8 °F 61.0 °F 30.13 in ENE 4.0 mph 9.0 mph 69 % 0.00 in
12:04 72.0 °F 61.2 °F 30.12 in East 4.0 mph 8.0 mph 69 % 0.00 in
12:09 72.0 °F 61.2 °F 30.12 in SSW 1.0 mph 8.0 mph 69 % 0.00 in
12:14 72.9 °F 62.1 °F 30.12 in East 3.0 mph 9.0 mph 69 % 0.00 in
12:19 73.6 °F 61.9 °F 30.12 in ESE 6.0 mph 9.0 mph 67 % 0.00 in
12:24 73.2 °F 61.5 °F 30.12 in ESE 4.0 mph 9.0 mph 67 % 0.00 in
12:29 73.8 °F 62.6 °F 30.11 in SE 5.0 mph 9.0 mph 68 % 0.00 in
12:34 73.9 °F 63.1 °F 30.11 in SE 6.0 mph 9.0 mph 69 % 0.00 in
12:39 74.5 °F 63.1 °F 30.10 in SE 3.0 mph 9.0 mph 68 % 0.00 in
12:44 74.1 °F 63.0 °F 30.10 in ENE 2.0 mph 9.0 mph 68 % 0.00 in
12:49 74.3 °F 63.5 °F 30.10 in ESE 11.0 mph 11.0 mph 69 % 0.00 in
12:54 74.3 °F 63.1 °F 30.10 in SSE 4.0 mph 12.0 mph 68 % 0.00 in
12:59 74.3 °F 62.6 °F 30.09 in SE 5.0 mph 12.0 mph 67 % 0.00 in
13:04 74.1 °F 62.4 °F 30.09 in ENE 5.0 mph 12.0 mph 67 % 0.00 in
13:09 74.3 °F 63.1 °F 30.08 in SSE 5.0 mph 10.0 mph 68 % 0.00 in
13:14 74.3 °F 63.1 °F 30.08 in SSE 5.0 mph 10.0 mph 68 % 0.00 in
13:20 74.7 °F 62.6 °F 30.07 in SE 8.0 mph 10.0 mph 66 % 0.00 in
13:25 74.7 °F 62.6 °F 30.07 in NE 4.0 mph 11.0 mph 66 % 0.00 in
13:30 74.8 °F 62.8 °F 30.06 in East 4.0 mph 12.0 mph 66 % 0.00 in
13:35 75.0 °F 63.0 °F 30.06 in SE 1.0 mph 12.0 mph 66 % 0.00 in
13:40 75.4 °F 63.1 °F 30.05 in NNE 4.0 mph 9.0 mph 66 % 0.00 in
13:45 75.7 °F 63.5 °F 30.04 in SE 3.0 mph 11.0 mph 66 % 0.00 in
13:50 75.9 °F 63.7 °F 30.04 in ESE 7.0 mph 13.0 mph 66 % 0.00 in
13:55 76.3 °F 63.1 °F 30.04 in SSE 1.0 mph 13.0 mph 64 % 0.00 in
14:00 76.3 °F 63.1 °F 30.04 in ESE 7.0 mph 13.0 mph 64 % 0.00 in
14:05 76.3 °F 63.1 °F 30.04 in ESE 3.0 mph 13.0 mph 64 % 0.00 in
14:10 76.5 °F 63.3 °F 30.03 in SE 3.0 mph 13.0 mph 64 % 0.00 in
14:15 76.6 °F 63.5 °F 30.03 in East 5.0 mph 9.0 mph 64 % 0.00 in
14:20 76.5 °F 63.9 °F 30.03 in ESE 9.0 mph 9.0 mph 65 % 0.00 in
14:25 76.6 °F 64.0 °F 30.03 in ESE 9.0 mph 12.0 mph 65 % 0.00 in
14:30 76.8 °F 64.6 °F 30.03 in ESE 5.0 mph 12.0 mph 66 % 0.00 in
14:35 77.2 °F 64.0 °F 30.03 in ENE 5.0 mph 12.0 mph 64 % 0.00 in
14:40 77.2 °F 64.6 °F 30.03 in East 4.0 mph 11.0 mph 65 % 0.00 in
14:45 77.2 °F 63.7 °F 30.02 in ESE 11.0 mph 11.0 mph 63 % 0.00 in
14:50 76.5 °F 63.3 °F 30.02 in ESE 5.0 mph 12.0 mph 64 % 0.00 in
14:55 76.3 °F 63.1 °F 30.02 in SE 8.0 mph 12.0 mph 64 % 0.00 in
15:00 75.9 °F 63.3 °F 30.02 in North 1.0 mph 12.0 mph 65 % 0.00 in
15:05 76.5 °F 63.3 °F 30.02 in East 4.0 mph 12.0 mph 64 % 0.00 in
15:10 76.6 °F 63.1 °F 30.01 in ESE 3.0 mph 13.0 mph 63 % 0.00 in
15:15 76.8 °F 63.7 °F 30.01 in SE 6.0 mph 13.0 mph 64 % 0.00 in
15:20 77.2 °F 63.7 °F 30.01 in South 5.0 mph 14.0 mph 63 % 0.00 in
15:25 77.5 °F 63.9 °F 30.01 in SSE 5.0 mph 14.0 mph 63 % 0.00 in
15:30 77.5 °F 63.5 °F 30.01 in SSE 3.0 mph 14.0 mph 62 % 0.00 in
15:35 77.2 °F 64.0 °F 30.01 in SE 2.0 mph 11.0 mph 64 % 0.00 in
15:40 77.4 °F 63.3 °F 30.01 in ESE 8.0 mph 11.0 mph 62 % 0.00 in
15:45 76.6 °F 63.1 °F 30.00 in SSE 5.0 mph 11.0 mph 63 % 0.00 in
15:50 76.1 °F 63.0 °F 30.00 in SE 6.0 mph 11.0 mph 64 % 0.00 in
15:55 75.7 °F 62.2 °F 30.00 in SE 5.0 mph 10.0 mph 63 % 0.00 in
16:00 75.7 °F 62.8 °F 30.00 in South 7.0 mph 11.0 mph 64 % 0.00 in
16:05 75.9 °F 62.8 °F 30.00 in SSE 4.0 mph 12.0 mph 64 % 0.00 in
16:11 75.7 °F 62.8 °F 29.99 in SSE 6.0 mph 14.0 mph 64 % 0.00 in
16:16 75.4 °F 62.8 °F 29.99 in ESE 5.0 mph 14.0 mph 65 % 0.00 in
16:21 75.6 °F 63.3 °F 30.00 in SE 4.0 mph 14.0 mph 66 % 0.00 in
16:26 75.6 °F 63.3 °F 29.99 in SE 8.0 mph 12.0 mph 66 % 0.00 in
16:31 75.7 °F 63.5 °F 29.99 in ESE 8.0 mph 12.0 mph 66 % 0.00 in
16:36 75.6 °F 63.3 °F 29.99 in ESE 2.0 mph 12.0 mph 66 % 0.00 in
16:41 75.2 °F 63.1 °F 29.99 in ESE 14.0 mph 14.0 mph 66 % 0.00 in
16:46 75.2 °F 63.5 °F 29.99 in East 5.0 mph 16.0 mph 67 % 0.00 in
16:51 75.0 °F 63.3 °F 29.99 in SE 6.0 mph 16.0 mph 67 % 0.00 in
16:56 74.8 °F 63.5 °F 29.99 in ESE 5.0 mph 16.0 mph 68 % 0.00 in
17:01 74.5 °F 63.1 °F 29.99 in SE 6.0 mph 13.0 mph 68 % 0.00 in
17:06 74.1 °F 63.3 °F 29.99 in ESE 8.0 mph 13.0 mph 69 % 0.00 in
17:11 73.8 °F 63.3 °F 29.99 in SSE 2.0 mph 13.0 mph 70 % 0.00 in
17:16 73.4 °F 63.0 °F 29.99 in South 1.0 mph 13.0 mph 70 % 0.00 in
17:21 73.2 °F 63.3 °F 29.99 in SE 6.0 mph 13.0 mph 71 % 0.00 in
17:26 73.0 °F 63.5 °F 29.99 in SSE 2.0 mph 13.0 mph 72 % 0.00 in
17:31 72.9 °F 63.3 °F 29.99 in SE 5.0 mph 13.0 mph 72 % 0.00 in
17:36 72.7 °F 63.5 °F 29.99 in SE 6.0 mph 13.0 mph 73 % 0.00 in
17:41 72.5 °F 63.3 °F 29.99 in SW 1.0 mph 9.0 mph 73 % 0.00 in
17:46 72.3 °F 63.5 °F 29.99 in East 9.0 mph 10.0 mph 74 % 0.00 in
17:51 72.1 °F 63.9 °F 29.99 in East 4.0 mph 10.0 mph 75 % 0.00 in
17:56 72.0 °F 63.7 °F 29.99 in SSE 5.0 mph 10.0 mph 75 % 0.00 in
18:01 71.8 °F 63.5 °F 29.99 in SE 1.0 mph 9.0 mph 75 % 0.00 in
18:06 71.6 °F 63.7 °F 29.99 in SSE 2.0 mph 9.0 mph 76 % 0.00 in
18:11 71.4 °F 63.5 °F 29.99 in ESE 1.0 mph 7.0 mph 76 % 0.00 in
18:16 71.2 °F 63.7 °F 29.99 in SE 3.0 mph 6.0 mph 77 % 0.00 in
18:21 71.1 °F 63.5 °F 29.99 in SE 4.0 mph 7.0 mph 77 % 0.00 in
18:26 71.1 °F 63.5 °F 29.99 in SE 4.0 mph 8.0 mph 77 % 0.00 in
18:31 70.9 °F 63.7 °F 29.99 in East 6.0 mph 9.0 mph 78 % 0.00 in
18:36 70.5 °F 63.3 °F 29.99 in ESE 7.0 mph 10.0 mph 78 % 0.00 in
18:41 70.5 °F 63.3 °F 29.99 in SSE 4.0 mph 11.0 mph 78 % 0.00 in
18:46 70.5 °F 63.7 °F 29.99 in ESE 7.0 mph 11.0 mph 79 % 0.00 in
18:51 70.3 °F 63.5 °F 29.99 in SE 3.0 mph 11.0 mph 79 % 0.00 in
18:56 70.3 °F 63.9 °F 29.99 in SE 3.0 mph 11.0 mph 80 % 0.00 in
19:01 70.2 °F 63.7 °F 29.99 in East 2.0 mph 10.0 mph 80 % 0.00 in
19:06 70.2 °F 63.7 °F 29.98 in SE 6.0 mph 10.0 mph 80 % 0.00 in
19:11 70.0 °F 63.9 °F 29.98 in East 4.0 mph 10.0 mph 81 % 0.00 in
19:16 70.0 °F 63.9 °F 29.98 in East 4.0 mph 8.0 mph 81 % 0.00 in
19:21 69.8 °F 63.7 °F 29.98 in East 2.0 mph 8.0 mph 81 % 0.00 in
19:26 69.6 °F 63.5 °F 29.98 in ESE 4.0 mph 12.0 mph 81 % 0.00 in
19:31 69.6 °F 63.5 °F 29.98 in East 4.0 mph 12.0 mph 81 % 0.00 in
19:36 69.4 °F 63.7 °F 29.98 in SSE 2.0 mph 12.0 mph 82 % 0.00 in
19:41 69.4 °F 63.7 °F 29.98 in ESE 3.0 mph 12.0 mph 82 % 0.00 in
19:46 69.3 °F 63.5 °F 29.98 in ENE 2.0 mph 12.0 mph 82 % 0.00 in
19:51 69.3 °F 63.5 °F 29.98 in SSE 4.0 mph 12.0 mph 82 % 0.00 in
19:56 69.3 °F 63.9 °F 29.98 in East 7.0 mph 12.0 mph 83 % 0.00 in
20:01 69.1 °F 63.7 °F 29.98 in SSE 5.0 mph 11.0 mph 83 % 0.00 in
20:07 69.1 °F 64.0 °F 29.98 in ESE 7.0 mph 11.0 mph 84 % 0.00 in
20:12 68.7 °F 63.7 °F 29.98 in SE 6.0 mph 12.0 mph 84 % 0.00 in
20:17 68.5 °F 63.9 °F 29.98 in SE 6.0 mph 12.0 mph 85 % 0.00 in
20:22 68.2 °F 63.5 °F 29.98 in ESE 7.0 mph 14.0 mph 85 % 0.00 in
20:27 67.8 °F 63.5 °F 29.98 in SE 5.0 mph 14.0 mph 86 % 0.00 in
20:32 67.6 °F 63.3 °F 29.98 in ESE 6.0 mph 14.0 mph 86 % 0.00 in
20:37 67.6 °F 63.3 °F 29.98 in SE 10.0 mph 15.0 mph 86 % 0.00 in
20:42 67.5 °F 63.5 °F 29.98 in ESE 8.0 mph 15.0 mph 87 % 0.00 in
20:47 67.5 °F 63.5 °F 29.97 in ESE 7.0 mph 15.0 mph 87 % 0.00 in
20:52 67.3 °F 63.3 °F 29.98 in ESE 4.0 mph 14.0 mph 87 % 0.00 in
20:57 67.3 °F 63.3 °F 29.97 in ESE 3.0 mph 14.0 mph 87 % 0.00 in
21:02 67.3 °F 63.3 °F 29.97 in South 6.0 mph 10.0 mph 87 % 0.00 in
21:07 67.3 °F 63.7 °F 29.97 in East 3.0 mph 10.0 mph 88 % 0.00 in
21:12 67.1 °F 63.5 °F 29.97 in SE 4.0 mph 12.0 mph 88 % 0.00 in
21:17 67.1 °F 63.5 °F 29.96 in SSE 2.0 mph 14.0 mph 88 % 0.00 in
21:22 66.9 °F 63.3 °F 29.96 in East 5.0 mph 14.0 mph 88 % 0.00 in
21:27 66.9 °F 63.5 °F 29.96 in SE 3.0 mph 14.0 mph 89 % 0.00 in
21:32 66.7 °F 63.3 °F 29.96 in East 4.0 mph 12.0 mph 89 % 0.00 in
21:37 66.7 °F 63.3 °F 29.96 in SSE 3.0 mph 12.0 mph 89 % 0.00 in
21:42 66.7 °F 63.3 °F 29.96 in ENE 1.0 mph 12.0 mph 89 % 0.00 in
21:47 66.9 °F 63.5 °F 29.96 in East 3.0 mph 12.0 mph 89 % 0.00 in
21:52 66.9 °F 63.5 °F 29.96 in ESE 6.0 mph 9.0 mph 89 % 0.00 in
21:57 66.9 °F 63.5 °F 29.96 in ESE 6.0 mph 9.0 mph 89 % 0.00 in
22:02 66.9 °F 63.5 °F 29.95 in SE 4.0 mph 9.0 mph 89 % 0.00 in
22:07 66.9 °F 63.5 °F 29.95 in ESE 7.0 mph 11.0 mph 89 % 0.00 in
22:12 66.9 °F 63.5 °F 29.95 in East 7.0 mph 11.0 mph 89 % 0.00 in
22:17 66.9 °F 63.5 °F 29.95 in East 7.0 mph 11.0 mph 89 % 0.00 in
22:22 66.9 °F 63.5 °F 29.95 in South 4.0 mph 11.0 mph 89 % 0.00 in
22:27 67.1 °F 63.7 °F 29.94 in ESE 4.0 mph 9.0 mph 89 % 0.00 in
22:32 67.1 °F 63.7 °F 29.95 in SE 4.0 mph 12.0 mph 89 % 0.00 in
22:37 67.1 °F 63.7 °F 29.95 in ESE 5.0 mph 12.0 mph 89 % 0.00 in
22:42 67.1 °F 63.7 °F 29.95 in ESE 6.0 mph 12.0 mph 89 % 0.00 in
22:47 67.1 °F 63.7 °F 29.95 in WSW 2.0 mph 10.0 mph 89 % 0.00 in
22:52 67.3 °F 63.9 °F 29.95 in SE 5.0 mph 10.0 mph 89 % 0.00 in
22:57 67.3 °F 63.9 °F 29.94 in East 5.0 mph 10.0 mph 89 % 0.00 in
23:02 67.3 °F 63.9 °F 29.94 in SE 7.0 mph 12.0 mph 89 % 0.00 in
23:08 67.3 °F 63.9 °F 29.94 in ESE 5.0 mph 12.0 mph 89 % 0.00 in
23:13 67.3 °F 63.9 °F 29.94 in East 6.0 mph 12.0 mph 89 % 0.00 in
23:18 67.3 °F 63.9 °F 29.93 in SSE 2.0 mph 9.0 mph 89 % 0.00 in
23:23 67.3 °F 63.9 °F 29.93 in ESE 5.0 mph 9.0 mph 89 % 0.00 in
23:28 67.1 °F 63.7 °F 29.93 in ENE 2.0 mph 9.0 mph 89 % 0.00 in
23:33 67.1 °F 63.7 °F 29.93 in ESE 3.0 mph 7.0 mph 89 % 0.00 in
23:38 67.3 °F 63.9 °F 29.93 in SSE 1.0 mph 7.0 mph 89 % 0.00 in
23:43 67.3 °F 63.9 °F 29.93 in SSE 3.0 mph 7.0 mph 89 % 0.00 in
23:48 67.1 °F 63.7 °F 29.93 in SE 2.0 mph 7.0 mph 89 % 0.00 in
23:53 67.3 °F 64.2 °F 29.93 in ENE 3.0 mph 7.0 mph 90 % 0.00 in
23:58 67.3 °F 64.2 °F 29.93 in East 3.0 mph 7.0 mph 90 % 0.00 in
Spring, Texas: Villages of Bridgestone
Compliments of Weather Underground - 2.75 mb

Script developed by  Jim McMurry - jmcmurry@mwt.net Adapted for the template by  Wim van der Kuil - Leuven-Template.eu

You find our weather info also at:

UK Metoffice

WeatherCloud

Weather Underground

Mid-South Weather Network

AWEKAS

Citizen Weather Observer Program (CWOP)

HAMweather, WeatherForYou, PWS Weather

Equipment we use:

Weather-station
Davis Vantage Vue

Weather-program
Meteohub

Weather-server
Debian 7.9 x86 (Guest)

Provider
DreamHost

Davis Vantage Vue

Meteohub

Debian 7.9 x86 (Guest)

DreamHost